createdAt,value
2023-05-13T00:00:18.124Z,5.72
2023-05-13T00:02:45.482Z,6.10
2023-05-13T00:05:12.786Z,6.03
2023-05-13T00:07:41.678Z,5.93
2023-05-13T00:10:09.567Z,6.20
2023-05-13T00:12:37.221Z,5.93
2023-05-13T00:15:05.197Z,5.85
2023-05-13T00:17:32.548Z,5.70
2023-05-13T00:19:59.919Z,6.20
2023-05-13T00:22:27.208Z,5.78
2023-05-13T00:24:54.546Z,6.30
2023-05-13T00:27:21.793Z,6.03
2023-05-13T00:29:49.063Z,6.15
2023-05-13T00:32:16.534Z,5.63
2023-05-13T00:34:43.821Z,5.55
2023-05-13T00:37:12.087Z,5.70
2023-05-13T00:39:39.302Z,5.57
2023-05-13T00:42:06.706Z,5.82
2023-05-13T00:44:34.766Z,5.88
2023-05-13T00:47:02.361Z,5.13
2023-05-13T00:49:29.712Z,5.70
2023-05-13T00:51:57.332Z,5.75
2023-05-13T00:54:24.616Z,5.43
2023-05-13T00:56:56.707Z,5.97
2023-05-13T00:59:28.998Z,5.53
2023-05-13T01:01:59.007Z,5.10
2023-05-13T01:05:03.061Z,5.20
2023-05-13T01:07:59.506Z,5.32
2023-05-13T01:10:32.545Z,5.00
2023-05-13T01:13:04.491Z,5.20
2023-05-13T01:15:34.192Z,5.07
2023-05-13T01:18:10.718Z,5.03
2023-05-13T01:20:42.930Z,4.95
2023-05-13T01:23:13.350Z,5.25
2023-05-13T01:25:41.485Z,5.15
2023-05-13T01:28:10.120Z,5.15
2023-05-13T01:30:37.680Z,4.85
2023-05-13T01:33:05.248Z,5.03
2023-05-13T01:35:33.326Z,5.07
2023-05-13T01:38:02.504Z,4.88
2023-05-13T01:40:33.029Z,4.72
2023-05-13T01:43:01.004Z,4.35
2023-05-13T01:45:29.959Z,4.70
2023-05-13T01:47:57.397Z,4.63
2023-05-13T01:50:24.898Z,4.85
2023-05-13T01:52:52.307Z,4.70
2023-05-13T01:55:19.848Z,5.00
2023-05-13T01:57:47.178Z,4.80
2023-05-13T02:00:15.029Z,4.85
2023-05-13T02:02:42.531Z,4.90
2023-05-13T02:05:10.130Z,4.72
2023-05-13T02:07:37.414Z,4.93
2023-05-13T02:10:05.115Z,5.22
2023-05-13T02:12:32.489Z,4.57
2023-05-13T02:14:59.774Z,4.53
2023-05-13T02:17:27.101Z,4.50
2023-05-13T02:19:54.399Z,4.90
2023-05-13T02:22:21.989Z,4.65
2023-05-13T02:24:49.273Z,4.70
2023-05-13T02:27:16.659Z,4.63
2023-05-13T02:29:43.983Z,4.32
2023-05-13T02:32:11.345Z,4.40
2023-05-13T02:34:38.645Z,3.83
2023-05-13T02:37:06.377Z,4.25
2023-05-13T02:39:33.637Z,4.65
2023-05-13T02:42:00.944Z,4.43
2023-05-13T02:44:28.256Z,4.43
2023-05-13T02:46:55.580Z,4.10
2023-05-13T02:49:22.862Z,4.68
2023-05-13T02:51:50.367Z,4.40
2023-05-13T02:54:17.693Z,4.07
2023-05-13T02:56:44.963Z,4.32
2023-05-13T02:59:12.247Z,4.10
2023-05-13T03:01:39.494Z,4.10
2023-05-13T03:04:06.807Z,4.65
2023-05-13T03:06:34.087Z,4.30
2023-05-13T03:09:01.380Z,4.45
2023-05-13T03:11:28.691Z,4.43
2023-05-13T03:13:55.916Z,4.40
2023-05-13T03:16:23.248Z,4.38
2023-05-13T03:18:50.722Z,4.18
2023-05-13T03:21:18.131Z,4.38
2023-05-13T03:23:45.426Z,4.32
2023-05-13T03:26:12.658Z,4.57
2023-05-13T03:28:39.960Z,4.45
2023-05-13T03:31:07.340Z,4.22
2023-05-13T03:33:34.605Z,3.95
2023-05-13T03:36:01.886Z,4.25
2023-05-13T03:38:29.237Z,4.40
2023-05-13T03:40:56.503Z,4.50
2023-05-13T03:43:24.069Z,4.57
2023-05-13T03:45:51.651Z,4.43
2023-05-13T03:48:18.914Z,4.38
2023-05-13T03:50:46.386Z,4.70
2023-05-13T03:53:13.727Z,4.43
2023-05-13T03:55:41.228Z,4.65
2023-05-13T03:58:14.245Z,4.20
2023-05-13T04:00:42.131Z,4.40
2023-05-13T04:03:09.485Z,4.60
2023-05-13T04:05:36.800Z,4.93
2023-05-13T04:08:04.280Z,4.38
2023-05-13T04:10:31.726Z,5.07
2023-05-13T04:12:58.970Z,4.63
2023-05-13T04:15:26.294Z,4.88
2023-05-13T04:17:53.993Z,4.80
2023-05-13T04:20:21.594Z,5.10
2023-05-13T04:22:49.374Z,4.82
2023-05-13T04:25:16.928Z,4.97
2023-05-13T04:27:44.470Z,4.55
2023-05-13T04:30:11.897Z,4.80
2023-05-13T04:32:39.545Z,4.50
2023-05-13T04:35:09.794Z,4.90
2023-05-13T04:37:37.090Z,4.93
2023-05-13T04:40:04.677Z,5.40
2023-05-13T04:42:31.903Z,5.18
2023-05-13T04:44:59.201Z,4.85
2023-05-13T04:47:26.538Z,5.13
2023-05-13T04:49:53.911Z,4.90
2023-05-13T04:52:21.405Z,5.18
2023-05-13T04:54:48.697Z,5.68
2023-05-13T04:57:16.047Z,5.15
2023-05-13T04:59:43.379Z,4.95
2023-05-13T05:02:10.722Z,5.40
2023-05-13T05:04:38.039Z,5.10
2023-05-13T05:07:05.445Z,4.97
2023-05-13T05:09:32.692Z,5.20
2023-05-13T05:11:59.921Z,4.97
2023-05-13T05:14:27.190Z,5.18
2023-05-13T05:16:54.641Z,5.35
2023-05-13T05:19:24.170Z,5.03
2023-05-13T05:21:54.528Z,5.10
2023-05-13T05:24:21.959Z,5.22
2023-05-13T05:26:49.227Z,5.15
2023-05-13T05:29:16.538Z,5.07
2023-05-13T05:31:44.216Z,5.53
2023-05-13T05:34:12.041Z,5.50
2023-05-13T05:36:39.264Z,5.57
2023-05-13T05:39:06.652Z,5.07
2023-05-13T05:41:34.199Z,5.18
2023-05-13T05:44:01.463Z,5.20
2023-05-13T05:46:28.787Z,5.28
2023-05-13T05:48:56.079Z,5.35
2023-05-13T05:51:23.415Z,5.40
2023-05-13T05:53:50.751Z,5.20
2023-05-13T05:56:18.073Z,5.07
2023-05-13T05:58:45.405Z,5.03
2023-05-13T06:01:12.766Z,5.63
2023-05-13T06:03:40.168Z,5.53
2023-05-13T06:06:07.739Z,5.20
2023-05-13T06:08:35.131Z,5.30
2023-05-13T06:11:02.440Z,5.45
2023-05-13T06:13:29.836Z,5.60
2023-05-13T06:15:57.266Z,5.20
2023-05-13T06:18:25.624Z,5.40
2023-05-13T06:20:52.962Z,5.90
2023-05-13T06:23:20.346Z,5.47
2023-05-13T06:25:47.672Z,5.82
2023-05-13T06:28:15.033Z,5.20
2023-05-13T06:30:42.289Z,5.30
2023-05-13T06:33:10.573Z,5.50
2023-05-13T06:35:38.426Z,5.53
2023-05-13T06:38:06.106Z,5.15
2023-05-13T06:40:33.392Z,5.80
2023-05-13T06:43:00.736Z,5.60
2023-05-13T06:45:28.078Z,5.28
2023-05-13T06:47:55.505Z,5.05
2023-05-13T06:50:23.030Z,5.28
2023-05-13T06:52:50.527Z,6.05
2023-05-13T06:55:19.095Z,5.32
2023-05-13T06:57:47.234Z,5.80
2023-05-13T07:00:15.564Z,6.43
2023-05-13T07:02:42.983Z,6.05
2023-05-13T07:05:11.581Z,6.15
2023-05-13T07:07:39.078Z,7.72
2023-05-13T07:10:06.673Z,6.45
2023-05-13T07:12:34.333Z,6.25
2023-05-13T07:15:01.555Z,7.07
2023-05-13T07:17:29.130Z,6.88
2023-05-13T07:19:56.884Z,6.82
2023-05-13T07:22:24.504Z,7.32
2023-05-13T07:24:51.764Z,7.47
2023-05-13T07:27:19.121Z,7.75
2023-05-13T07:29:46.557Z,8.18
2023-05-13T07:32:13.927Z,8.00
2023-05-13T07:34:41.522Z,8.32
2023-05-13T07:37:08.894Z,7.88
2023-05-13T07:39:36.212Z,8.70
2023-05-13T07:42:04.497Z,8.32
2023-05-13T07:44:31.801Z,9.57
2023-05-13T07:46:59.189Z,10.15
2023-05-13T07:49:26.556Z,10.02
2023-05-13T07:51:53.831Z,9.60
2023-05-13T07:54:21.204Z,9.63
2023-05-13T07:56:48.439Z,11.02
2023-05-13T07:59:15.769Z,10.48
2023-05-13T08:01:43.620Z,10.38
2023-05-13T08:04:11.092Z,10.95
2023-05-13T08:06:38.546Z,10.32
2023-05-13T08:09:06.557Z,10.32
2023-05-13T08:11:33.836Z,11.60
2023-05-13T08:14:01.131Z,12.98
2023-05-13T08:16:28.446Z,11.85
2023-05-13T08:18:55.813Z,11.68
2023-05-13T08:21:23.297Z,11.75
2023-05-13T08:23:52.047Z,12.32
2023-05-13T08:26:19.455Z,11.82
2023-05-13T08:28:46.786Z,11.75
2023-05-13T08:31:14.267Z,11.98
2023-05-13T08:33:42.772Z,11.40
2023-05-13T08:36:10.209Z,11.55
2023-05-13T08:38:37.534Z,13.18
2023-05-13T08:41:06.439Z,11.45
2023-05-13T08:43:34.431Z,10.65
2023-05-13T08:46:04.590Z,10.55
2023-05-13T08:48:33.727Z,11.15
2023-05-13T08:51:02.533Z,12.05
2023-05-13T08:53:31.524Z,11.88
2023-05-13T08:56:00.361Z,12.85
2023-05-13T08:58:28.057Z,13.18
2023-05-13T09:00:55.917Z,12.10
2023-05-13T09:03:23.735Z,10.82
2023-05-13T09:05:51.598Z,11.10
2023-05-13T09:08:18.988Z,10.25
2023-05-13T09:10:46.501Z,10.05
2023-05-13T09:13:14.410Z,9.88
2023-05-13T09:15:45.880Z,9.38
2023-05-13T09:18:17.905Z,10.13
2023-05-13T09:20:46.361Z,9.55
2023-05-13T09:23:14.259Z,10.88
2023-05-13T09:25:41.544Z,9.70
2023-05-13T09:28:08.949Z,8.85
2023-05-13T09:30:38.698Z,8.85
2023-05-13T09:33:13.614Z,10.43
2023-05-13T09:35:49.370Z,8.73
2023-05-13T09:38:19.311Z,9.18
2023-05-13T09:41:00.337Z,9.90
2023-05-13T09:43:32.783Z,8.63
2023-05-13T09:46:04.867Z,8.75
2023-05-13T09:48:37.969Z,8.45
2023-05-13T09:51:05.906Z,8.98
2023-05-13T09:53:33.182Z,7.95
2023-05-13T09:56:01.696Z,8.07
2023-05-13T09:58:31.060Z,8.35
2023-05-13T10:00:59.186Z,8.45
2023-05-13T10:03:28.521Z,8.30
2023-05-13T10:05:56.811Z,8.43
2023-05-13T10:08:24.836Z,8.43
2023-05-13T10:10:55.532Z,8.95
2023-05-13T10:13:25.646Z,8.77
2023-05-13T10:15:54.693Z,8.40
2023-05-13T10:18:24.094Z,8.40
2023-05-13T10:20:53.670Z,8.05
2023-05-13T10:23:24.023Z,7.20
2023-05-13T10:25:53.224Z,7.57
2023-05-13T10:28:20.882Z,8.20
2023-05-13T10:30:51.633Z,7.40
2023-05-13T10:33:19.255Z,7.30
2023-05-13T10:36:16.477Z,7.00
2023-05-13T10:39:01.554Z,7.50
2023-05-13T10:41:47.706Z,7.38
2023-05-13T10:44:15.050Z,6.95
2023-05-13T10:46:43.828Z,7.60
2023-05-13T10:49:18.327Z,7.20
2023-05-13T10:51:48.359Z,7.05
2023-05-13T10:54:21.308Z,6.78
2023-05-13T10:56:57.727Z,6.80
2023-05-13T10:59:25.233Z,7.40
2023-05-13T11:01:53.385Z,7.18
2023-05-13T11:04:21.686Z,6.90
2023-05-13T11:06:50.759Z,7.15
2023-05-13T11:09:21.164Z,6.65
2023-05-13T11:11:53.556Z,6.85
2023-05-13T11:14:22.781Z,7.13
2023-05-13T11:16:55.327Z,7.68
2023-05-13T11:19:32.456Z,7.60
2023-05-13T11:22:13.722Z,7.63
2023-05-13T11:24:44.319Z,7.75
2023-05-13T11:27:21.336Z,6.97
2023-05-13T11:29:50.390Z,7.95
2023-05-13T11:32:52.298Z,7.60
2023-05-13T11:35:33.226Z,7.50
2023-05-13T11:38:02.445Z,7.50
2023-05-13T11:40:33.546Z,7.22
2023-05-13T11:43:01.709Z,7.45
2023-05-13T11:45:31.171Z,7.43
2023-05-13T11:47:59.079Z,7.40
2023-05-13T11:50:30.857Z,7.05
2023-05-13T11:53:00.603Z,7.50
2023-05-13T11:55:30.181Z,7.32
2023-05-13T11:57:58.601Z,7.78
2023-05-13T12:00:34.576Z,7.75
2023-05-13T12:03:09.331Z,7.90
2023-05-13T12:05:37.133Z,7.93
2023-05-13T12:08:04.727Z,8.38
2023-05-13T12:10:31.993Z,8.18
2023-05-13T12:12:59.356Z,9.05
2023-05-13T12:15:26.779Z,8.35
2023-05-13T12:17:54.709Z,8.68
2023-05-13T12:20:23.993Z,8.82
2023-05-13T12:22:54.252Z,9.10
2023-05-13T12:25:47.734Z,8.70
2023-05-13T12:28:18.045Z,9.18
2023-05-13T12:30:51.373Z,8.73
2023-05-13T12:33:49.439Z,8.15
2023-05-13T12:36:20.122Z,8.73
2023-05-13T12:39:00.420Z,8.80
2023-05-13T12:41:39.366Z,8.85
2023-05-13T12:44:13.515Z,9.00
2023-05-13T12:46:54.321Z,8.73
2023-05-13T12:49:22.497Z,8.80
2023-05-13T12:51:51.673Z,8.98
2023-05-13T12:54:19.119Z,9.38
2023-05-13T12:56:46.580Z,9.10
2023-05-13T12:59:14.467Z,9.50
2023-05-13T13:01:42.880Z,9.18
2023-05-13T13:04:10.559Z,9.40
2023-05-13T13:06:38.127Z,9.88
2023-05-13T13:09:05.969Z,9.65
2023-05-13T13:11:33.228Z,9.55
2023-05-13T13:14:00.580Z,9.98
2023-05-13T13:16:27.911Z,9.60
2023-05-13T13:18:58.946Z,9.35
2023-05-13T13:21:27.209Z,10.05
2023-05-13T13:23:54.499Z,9.63
2023-05-13T13:26:23.320Z,9.65
2023-05-13T13:28:50.684Z,9.90
2023-05-13T13:31:18.011Z,10.07
2023-05-13T13:33:45.486Z,9.40
2023-05-13T13:36:12.888Z,9.43
2023-05-13T13:38:40.232Z,9.57
2023-05-13T13:41:07.655Z,9.52
2023-05-13T13:43:34.921Z,9.80
2023-05-13T13:46:02.285Z,9.52
2023-05-13T13:48:29.659Z,10.05
2023-05-13T13:50:58.502Z,9.23
2023-05-13T13:53:25.790Z,10.00
2023-05-13T13:55:53.051Z,9.55
2023-05-13T13:58:20.376Z,8.82
2023-05-13T14:00:47.669Z,8.93
2023-05-13T14:03:15.071Z,9.27
2023-05-13T14:05:42.486Z,8.77
2023-05-13T14:08:09.784Z,8.93
2023-05-13T14:10:37.101Z,8.85
2023-05-13T14:13:04.370Z,8.68
2023-05-13T14:15:31.749Z,8.80
2023-05-13T14:17:59.210Z,8.55
2023-05-13T14:20:28.963Z,8.50
2023-05-13T14:22:56.640Z,8.27
2023-05-13T14:25:23.906Z,8.60
2023-05-13T14:27:51.255Z,7.95
2023-05-13T14:30:18.522Z,8.80
2023-05-13T14:32:45.937Z,8.73
2023-05-13T14:35:13.663Z,8.35
2023-05-13T14:37:41.291Z,8.45
2023-05-13T14:40:09.649Z,8.30
2023-05-13T14:42:37.041Z,8.25
2023-05-13T14:45:04.734Z,8.30
2023-05-13T14:47:32.230Z,8.45
2023-05-13T14:49:59.625Z,8.40
2023-05-13T14:52:26.959Z,8.13
2023-05-13T14:54:54.963Z,8.48
2023-05-13T14:57:22.461Z,8.57
2023-05-13T14:59:49.779Z,7.95
2023-05-13T15:02:17.646Z,8.30
2023-05-13T15:04:45.071Z,8.93
2023-05-13T15:07:12.595Z,7.95
2023-05-13T15:09:39.878Z,8.00
2023-05-13T15:12:07.763Z,8.10
2023-05-13T15:14:35.069Z,8.45
2023-05-13T15:17:02.628Z,7.72
2023-05-13T15:19:30.700Z,7.80
2023-05-13T15:21:58.021Z,8.55
2023-05-13T15:24:25.332Z,8.45
2023-05-13T15:26:52.679Z,7.97
2023-05-13T15:29:19.970Z,8.10
2023-05-13T15:31:50.998Z,8.10
2023-05-13T15:34:18.259Z,7.85
2023-05-13T15:36:45.576Z,8.10
2023-05-13T15:39:12.839Z,7.82
2023-05-13T15:41:43.674Z,7.85
2023-05-13T15:44:11.128Z,7.95
2023-05-13T15:46:38.574Z,7.93
2023-05-13T15:49:06.623Z,7.53
2023-05-13T15:51:34.651Z,7.60
2023-05-13T15:54:02.062Z,7.40
2023-05-13T15:56:29.436Z,7.30
2023-05-13T15:58:56.822Z,7.25
2023-05-13T16:01:24.093Z,7.43
2023-05-13T16:03:51.392Z,7.38
2023-05-13T16:06:18.754Z,6.97
2023-05-13T16:08:46.067Z,7.47
2023-05-13T16:11:13.510Z,7.95
2023-05-13T16:13:41.219Z,7.30
2023-05-13T16:16:08.603Z,8.30
2023-05-13T16:18:35.935Z,7.43
2023-05-13T16:21:03.331Z,8.00
2023-05-13T16:23:30.652Z,7.68
2023-05-13T16:25:57.951Z,7.70
2023-05-13T16:28:25.383Z,7.45
2023-05-13T16:30:55.892Z,8.15
2023-05-13T16:33:24.805Z,7.30
2023-05-13T16:35:52.162Z,7.53
2023-05-13T16:38:19.462Z,7.97
2023-05-13T16:40:46.780Z,7.88
2023-05-13T16:43:14.036Z,8.43
2023-05-13T16:45:42.610Z,7.78
2023-05-13T16:48:10.011Z,7.50
2023-05-13T16:50:37.576Z,7.70
2023-05-13T16:53:04.871Z,7.43
2023-05-13T16:55:32.356Z,7.15
2023-05-13T16:58:01.485Z,7.32
2023-05-13T17:00:29.009Z,7.65
2023-05-13T17:02:56.402Z,7.85
2023-05-13T17:05:23.740Z,7.38
2023-05-13T17:07:51.090Z,6.88
2023-05-13T17:10:18.408Z,7.43
2023-05-13T17:12:45.793Z,7.60
2023-05-13T17:15:13.149Z,7.20
2023-05-13T17:17:40.687Z,7.03
2023-05-13T17:20:08.508Z,7.50
2023-05-13T17:22:35.865Z,8.00
2023-05-13T17:25:03.230Z,9.35
2023-05-13T17:27:30.538Z,8.63
2023-05-13T17:29:57.802Z,8.40
2023-05-13T17:32:25.157Z,9.20
2023-05-13T17:34:52.559Z,8.88
2023-05-13T17:37:19.821Z,8.65
2023-05-13T17:39:47.072Z,9.25
2023-05-13T17:42:14.359Z,9.15
2023-05-13T17:44:41.708Z,9.30
2023-05-13T17:47:08.991Z,9.63
2023-05-13T17:49:36.339Z,9.57
2023-05-13T17:52:03.908Z,8.98
2023-05-13T17:54:31.255Z,9.23
2023-05-13T17:56:58.568Z,9.63
2023-05-13T17:59:25.856Z,8.80
2023-05-13T18:01:53.207Z,9.52
2023-05-13T18:04:20.567Z,10.02
2023-05-13T18:06:47.871Z,10.13
2023-05-13T18:09:15.443Z,9.50
2023-05-13T18:11:42.794Z,9.30
2023-05-13T18:14:10.100Z,9.18
2023-05-13T18:16:37.532Z,9.38
2023-05-13T18:19:06.095Z,8.63
2023-05-13T18:21:33.485Z,9.68
2023-05-13T18:24:00.866Z,10.05
2023-05-13T18:26:28.211Z,10.15
2023-05-13T18:28:55.565Z,10.10
2023-05-13T18:31:22.895Z,10.75
2023-05-13T18:33:50.182Z,9.23
2023-05-13T18:36:17.689Z,10.27
2023-05-13T18:38:47.822Z,9.18
2023-05-13T18:41:15.166Z,9.85
2023-05-13T18:43:42.454Z,9.45
2023-05-13T18:46:10.146Z,9.15
2023-05-13T18:48:37.550Z,8.02
2023-05-13T18:51:04.914Z,8.43
2023-05-13T18:53:32.210Z,8.15
2023-05-13T18:55:59.815Z,8.05
2023-05-13T18:58:27.971Z,7.28
2023-05-13T19:00:55.608Z,7.68
2023-05-13T19:03:23.083Z,7.13
2023-05-13T19:05:50.453Z,7.25
2023-05-13T19:08:17.760Z,7.13
2023-05-13T19:10:45.163Z,7.20
2023-05-13T19:13:13.959Z,7.05
2023-05-13T19:15:41.360Z,7.60
2023-05-13T19:18:08.701Z,7.28
2023-05-13T19:20:36.010Z,6.72
2023-05-13T19:23:03.340Z,6.97
2023-05-13T19:25:30.724Z,6.93
2023-05-13T19:27:58.122Z,7.28
2023-05-13T19:30:25.495Z,6.82
2023-05-13T19:32:52.911Z,7.28
2023-05-13T19:35:20.245Z,6.78
2023-05-13T19:37:47.519Z,6.78
2023-05-13T19:40:14.818Z,6.43
2023-05-13T19:42:42.194Z,7.57
2023-05-13T19:45:10.721Z,6.95
2023-05-13T19:47:39.534Z,7.45
2023-05-13T19:50:07.306Z,7.45
2023-05-13T19:52:34.756Z,7.05
2023-05-13T19:55:02.303Z,6.72
2023-05-13T19:57:30.119Z,7.38
2023-05-13T19:59:58.533Z,6.97
2023-05-13T20:02:25.966Z,7.28
2023-05-13T20:04:53.359Z,7.07
2023-05-13T20:07:20.672Z,7.15
2023-05-13T20:09:48.009Z,7.30
2023-05-13T20:12:15.357Z,7.03
2023-05-13T20:14:46.385Z,6.88
2023-05-13T20:17:18.744Z,7.15
2023-05-13T20:19:47.682Z,6.85
2023-05-13T20:22:16.325Z,7.03
2023-05-13T20:24:46.444Z,7.15
2023-05-13T20:27:14.083Z,7.60
2023-05-13T20:29:44.432Z,7.15
2023-05-13T20:32:11.856Z,7.53
2023-05-13T20:34:39.242Z,6.97
2023-05-13T20:37:06.750Z,6.70
2023-05-13T20:39:33.977Z,7.35
2023-05-13T20:42:01.298Z,6.85
2023-05-13T20:44:28.693Z,7.05
2023-05-13T20:46:56.527Z,7.45
2023-05-13T20:49:23.754Z,7.43
2023-05-13T20:51:51.334Z,7.07
2023-05-13T20:54:18.641Z,6.85
2023-05-13T20:56:45.932Z,7.10
2023-05-13T20:59:13.233Z,7.03
2023-05-13T21:01:41.508Z,7.30
2023-05-13T21:04:09.951Z,7.72
2023-05-13T21:06:37.365Z,6.82
2023-05-13T21:09:04.793Z,7.38
2023-05-13T21:11:32.672Z,7.50
2023-05-13T21:14:00.038Z,7.88
2023-05-13T21:16:27.469Z,7.22
2023-05-13T21:18:54.944Z,7.22
2023-05-13T21:21:22.668Z,7.30
2023-05-13T21:23:50.105Z,7.03
2023-05-13T21:26:17.669Z,7.05
2023-05-13T21:28:44.994Z,7.30
2023-05-13T21:31:12.324Z,7.68
2023-05-13T21:33:39.660Z,7.05
2023-05-13T21:36:08.595Z,7.20
2023-05-13T21:38:36.164Z,7.07
2023-05-13T21:41:03.471Z,7.40
2023-05-13T21:43:30.783Z,7.68
2023-05-13T21:45:58.113Z,7.53
2023-05-13T21:48:25.895Z,7.63
2023-05-13T21:50:53.280Z,7.53
2023-05-13T21:53:20.635Z,7.47
2023-05-13T21:55:48.276Z,7.18
2023-05-13T21:58:15.922Z,7.70
2023-05-13T22:00:43.259Z,7.55
2023-05-13T22:03:10.754Z,7.78
2023-05-13T22:05:43.681Z,7.30
2023-05-13T22:08:11.567Z,7.80
2023-05-13T22:10:39.648Z,7.47
2023-05-13T22:13:07.180Z,7.88
2023-05-13T22:15:34.523Z,7.65
2023-05-13T22:18:01.882Z,7.65
2023-05-13T22:20:29.267Z,7.88
2023-05-13T22:22:56.565Z,7.60
2023-05-13T22:25:23.840Z,7.53
2023-05-13T22:27:51.763Z,7.38
2023-05-13T22:30:19.328Z,7.63
2023-05-13T22:32:46.647Z,7.30
2023-05-13T22:35:13.966Z,7.47
2023-05-13T22:37:41.342Z,7.60
2023-05-13T22:40:11.114Z,7.53
2023-05-13T22:42:38.454Z,7.60
2023-05-13T22:45:06.617Z,7.45
2023-05-13T22:47:34.833Z,7.60
2023-05-13T22:50:02.428Z,7.38
2023-05-13T22:52:29.752Z,7.72
2023-05-13T22:54:56.976Z,7.13
2023-05-13T22:57:24.268Z,7.80
2023-05-13T22:59:51.560Z,7.47
2023-05-13T23:02:18.813Z,7.30
2023-05-13T23:04:46.087Z,7.38
2023-05-13T23:07:13.398Z,7.65
2023-05-13T23:09:40.847Z,7.63
2023-05-13T23:12:08.404Z,7.60
2023-05-13T23:14:35.982Z,7.43
2023-05-13T23:17:03.294Z,7.97
2023-05-13T23:19:30.782Z,7.43
2023-05-13T23:21:58.159Z,7.57
2023-05-13T23:24:25.476Z,7.72
2023-05-13T23:26:52.790Z,7.80
2023-05-13T23:29:20.100Z,7.25
2023-05-13T23:31:47.476Z,7.90
2023-05-13T23:34:14.847Z,7.88
2023-05-13T23:36:42.168Z,7.78
2023-05-13T23:39:09.664Z,8.18
2023-05-13T23:41:36.955Z,7.75
2023-05-13T23:44:04.886Z,7.65
2023-05-13T23:46:32.150Z,7.80
2023-05-13T23:48:59.831Z,7.28
2023-05-13T23:51:27.206Z,7.78
2023-05-13T23:53:55.524Z,7.50
2023-05-13T23:56:22.775Z,7.47
2023-05-13T23:58:50.081Z,7.55
